createdAt,value
2016-11-13T00:00:32.970Z,0
2016-11-13T00:01:32.979Z,0
2016-11-13T00:02:33.019Z,0
2016-11-13T00:03:33.007Z,0
2016-11-13T00:04:33.014Z,0
2016-11-13T00:05:33.011Z,0
2016-11-13T00:06:33.042Z,0
2016-11-13T00:07:33.030Z,0
2016-11-13T00:08:33.056Z,0
2016-11-13T00:09:33.100Z,0
2016-11-13T00:10:33.092Z,0
2016-11-13T00:11:33.168Z,0
2016-11-13T00:12:33.098Z,0
2016-11-13T00:13:33.117Z,0
2016-11-13T00:14:33.142Z,0
2016-11-13T00:15:33.148Z,0
2016-11-13T00:16:33.155Z,0
2016-11-13T00:17:33.171Z,0
2016-11-13T00:18:33.172Z,0
2016-11-13T00:19:33.237Z,0
2016-11-13T00:20:33.210Z,0
2016-11-13T00:21:33.214Z,0
2016-11-13T00:22:33.226Z,0
2016-11-13T00:23:33.237Z,0
2016-11-13T00:24:33.259Z,0
2016-11-13T00:25:33.279Z,0
2016-11-13T00:26:33.282Z,0
2016-11-13T00:27:33.287Z,0
2016-11-13T00:28:33.282Z,0
2016-11-13T00:29:33.311Z,0
2016-11-13T00:30:33.315Z,0
2016-11-13T00:31:33.328Z,0
2016-11-13T00:32:33.334Z,0
2016-11-13T00:33:33.351Z,0
2016-11-13T00:34:33.364Z,0
2016-11-13T00:35:33.374Z,0
2016-11-13T00:36:33.383Z,0
2016-11-13T00:37:33.398Z,0
2016-11-13T00:38:33.407Z,0
2016-11-13T00:39:33.416Z,0
2016-11-13T00:40:33.449Z,0
2016-11-13T00:41:33.453Z,0
2016-11-13T00:42:33.443Z,0
2016-11-13T00:43:33.458Z,0
2016-11-13T00:44:33.477Z,0
2016-11-13T00:45:33.481Z,0
2016-11-13T00:46:33.495Z,0
2016-11-13T00:47:33.511Z,0
2016-11-13T00:48:33.524Z,0
2016-11-13T00:49:33.539Z,0
2016-11-13T00:50:33.547Z,0
2016-11-13T00:51:33.550Z,0
2016-11-13T00:52:33.573Z,0
2016-11-13T00:53:33.587Z,0
2016-11-13T00:54:33.596Z,0
2016-11-13T00:55:33.595Z,0
2016-11-13T00:56:33.609Z,0
2016-11-13T00:57:33.643Z,0
2016-11-13T00:58:33.648Z,0
2016-11-13T00:59:33.652Z,0
2016-11-13T01:00:33.662Z,0
2016-11-13T01:01:33.674Z,0
2016-11-13T01:02:33.691Z,0
2016-11-13T01:03:33.707Z,0
2016-11-13T01:04:33.713Z,0
2016-11-13T01:05:33.726Z,0
2016-11-13T01:06:33.724Z,0
2016-11-13T01:07:33.760Z,0
2016-11-13T01:08:33.750Z,0
2016-11-13T01:09:33.770Z,0
2016-11-13T01:10:33.792Z,0
2016-11-13T01:11:33.781Z,0
2016-11-13T01:12:33.801Z,0
2016-11-13T01:13:33.811Z,0
2016-11-13T01:14:33.839Z,0
2016-11-13T01:15:33.844Z,0
2016-11-13T01:16:33.849Z,0
2016-11-13T01:17:33.861Z,0
2016-11-13T01:18:33.879Z,0
2016-11-13T01:19:33.883Z,0
2016-11-13T01:20:33.897Z,0
2016-11-13T01:21:33.917Z,0
2016-11-13T01:22:33.920Z,0
2016-11-13T01:23:33.926Z,0
2016-11-13T01:24:33.947Z,0
2016-11-13T01:25:33.963Z,0
2016-11-13T01:26:33.975Z,0
2016-11-13T01:27:34.057Z,0
2016-11-13T01:28:33.991Z,0
2016-11-13T01:29:34.011Z,0
2016-11-13T01:30:34.019Z,0
2016-11-13T01:31:34.035Z,0
2016-11-13T01:32:34.030Z,0
2016-11-13T01:33:34.047Z,0
2016-11-13T01:34:34.055Z,0
2016-11-13T01:35:34.102Z,0
2016-11-13T01:36:34.101Z,0
2016-11-13T01:37:34.090Z,0
2016-11-13T01:38:34.116Z,0
2016-11-13T01:39:34.113Z,0
2016-11-13T01:40:34.138Z,0
2016-11-13T01:41:34.150Z,0
2016-11-13T01:42:34.143Z,0
2016-11-13T01:43:34.166Z,0
2016-11-13T01:44:34.181Z,0
2016-11-13T01:45:34.197Z,0
2016-11-13T01:46:34.192Z,0
2016-11-13T01:47:34.217Z,0
2016-11-13T01:48:34.229Z,0
2016-11-13T01:49:34.270Z,0
2016-11-13T01:50:34.255Z,0
2016-11-13T01:51:34.260Z,0
2016-11-13T01:52:34.293Z,0
2016-11-13T01:53:34.293Z,0
2016-11-13T01:54:34.287Z,0
2016-11-13T01:55:34.309Z,0
2016-11-13T01:56:34.310Z,0
2016-11-13T01:57:34.334Z,0
2016-11-13T01:58:34.350Z,0
2016-11-13T01:59:34.356Z,0
2016-11-13T02:00:34.365Z,0
2016-11-13T02:01:34.371Z,0
2016-11-13T02:02:34.387Z,0
2016-11-13T02:03:34.431Z,0
2016-11-13T02:04:34.405Z,0
2016-11-13T02:05:34.420Z,0
2016-11-13T02:06:34.475Z,0
2016-11-13T02:07:34.453Z,0
2016-11-13T02:08:34.454Z,0
2016-11-13T02:09:34.475Z,0
2016-11-13T02:10:34.480Z,0
2016-11-13T02:11:34.497Z,0
2016-11-13T02:12:34.505Z,0
2016-11-13T02:13:34.512Z,0
2016-11-13T02:14:34.519Z,0
2016-11-13T02:15:34.532Z,0
2016-11-13T02:16:34.550Z,0
2016-11-13T02:17:34.551Z,0
2016-11-13T02:18:34.584Z,0
2016-11-13T02:19:34.581Z,0
2016-11-13T02:20:34.605Z,0
2016-11-13T02:21:34.614Z,0
2016-11-13T02:22:34.624Z,0
2016-11-13T02:23:34.638Z,0
2016-11-13T02:24:34.649Z,0
2016-11-13T02:25:34.656Z,0
2016-11-13T02:26:34.671Z,0
2016-11-13T02:27:34.672Z,0
2016-11-13T02:28:34.682Z,0
2016-11-13T02:29:34.713Z,0
2016-11-13T02:30:34.729Z,0
2016-11-13T02:31:34.716Z,0
2016-11-13T02:32:34.738Z,0
2016-11-13T02:33:34.751Z,0
2016-11-13T02:34:34.743Z,0
2016-11-13T02:35:34.799Z,0
2016-11-13T02:36:34.777Z,0
2016-11-13T02:37:34.788Z,0
2016-11-13T02:38:34.800Z,0
2016-11-13T02:39:34.816Z,0
2016-11-13T02:40:34.827Z,0
2016-11-13T02:41:34.847Z,0
2016-11-13T02:42:34.844Z,0
2016-11-13T02:43:34.875Z,0
2016-11-13T02:44:34.866Z,0
2016-11-13T02:45:34.881Z,0
2016-11-13T02:46:34.900Z,0
2016-11-13T02:47:34.912Z,0
2016-11-13T02:48:34.921Z,0
2016-11-13T02:49:34.923Z,0
2016-11-13T02:50:34.948Z,0
2016-11-13T02:51:34.948Z,0
2016-11-13T02:52:34.970Z,0
2016-11-13T02:53:34.975Z,0
2016-11-13T02:54:34.978Z,0
2016-11-13T02:55:35.009Z,0
2016-11-13T02:56:35.004Z,0
2016-11-13T02:57:35.021Z,0
2016-11-13T02:58:35.028Z,0
2016-11-13T02:59:35.092Z,0
2016-11-13T03:00:35.045Z,0
2016-11-13T03:01:35.078Z,0
2016-11-13T03:02:35.085Z,0
2016-11-13T03:03:35.089Z,0
2016-11-13T03:04:35.097Z,0
2016-11-13T03:05:35.109Z,0
2016-11-13T03:06:35.126Z,0
2016-11-13T03:07:35.137Z,0
2016-11-13T03:08:35.174Z,0
2016-11-13T03:09:35.149Z,0
2016-11-13T03:10:35.152Z,0
2016-11-13T03:11:35.187Z,0
2016-11-13T03:12:35.188Z,0
2016-11-13T03:13:35.210Z,0
2016-11-13T03:14:35.211Z,0
2016-11-13T03:15:35.224Z,0
2016-11-13T03:16:35.555Z,0
2016-11-13T03:17:35.253Z,0
2016-11-13T03:18:35.263Z,0
2016-11-13T03:19:35.281Z,0
2016-11-13T03:20:35.288Z,0
2016-11-13T03:21:35.311Z,0
2016-11-13T03:22:35.315Z,0
2016-11-13T03:23:35.312Z,0
2016-11-13T03:24:35.333Z,0
2016-11-13T03:25:35.342Z,0
2016-11-13T03:26:35.342Z,0
2016-11-13T03:27:35.363Z,0
2016-11-13T03:28:35.382Z,0
2016-11-13T03:29:35.391Z,0
2016-11-13T03:30:35.407Z,0
2016-11-13T03:31:35.409Z,0
2016-11-13T03:32:35.418Z,0
2016-11-13T03:33:35.435Z,0
2016-11-13T03:34:35.479Z,0
2016-11-13T03:35:35.456Z,0
2016-11-13T03:36:35.469Z,0
2016-11-13T03:37:35.482Z,0
2016-11-13T03:38:35.502Z,0
2016-11-13T03:39:35.500Z,0
2016-11-13T03:40:35.513Z,0
2016-11-13T03:41:35.514Z,0
2016-11-13T03:42:35.547Z,0
2016-11-13T03:43:35.560Z,0
2016-11-13T03:44:35.650Z,0
2016-11-13T03:45:35.582Z,0
2016-11-13T03:46:35.908Z,0
2016-11-13T03:47:35.590Z,0
2016-11-13T03:48:35.610Z,0
2016-11-13T03:49:35.631Z,0
2016-11-13T03:50:35.639Z,0
2016-11-13T03:51:35.636Z,0
2016-11-13T03:52:35.653Z,0
2016-11-13T03:53:35.666Z,0
2016-11-13T03:54:35.679Z,0
2016-11-13T03:55:35.682Z,0
2016-11-13T03:56:35.704Z,0
2016-11-13T03:57:35.719Z,0
2016-11-13T03:58:35.738Z,0
2016-11-13T03:59:35.739Z,0
2016-11-13T04:01:35.785Z,0
2016-11-13T04:02:35.799Z,0
2016-11-13T04:03:35.822Z,0
2016-11-13T04:04:35.809Z,0
2016-11-13T04:05:35.829Z,0
2016-11-13T04:06:35.939Z,0
2016-11-13T04:07:35.893Z,0
2016-11-13T04:08:35.861Z,0
2016-11-13T04:09:35.878Z,0
2016-11-13T04:10:35.897Z,0
2016-11-13T04:11:35.897Z,0
2016-11-13T04:12:35.905Z,0
2016-11-13T04:13:35.913Z,0
2016-11-13T04:14:35.929Z,0
2016-11-13T04:15:35.945Z,0
2016-11-13T04:16:35.954Z,0
2016-11-13T04:17:35.969Z,0
2016-11-13T04:18:35.988Z,0
2016-11-13T04:19:35.993Z,0
2016-11-13T04:20:35.997Z,0
2016-11-13T04:21:36.009Z,0
2016-11-13T04:22:36.011Z,0
2016-11-13T04:23:36.043Z,0
2016-11-13T04:24:36.045Z,0
2016-11-13T04:25:36.065Z,0
2016-11-13T04:26:36.073Z,0
2016-11-13T04:27:36.078Z,0
2016-11-13T04:28:36.107Z,0
2016-11-13T04:29:36.116Z,0
2016-11-13T04:30:36.119Z,0
2016-11-13T04:31:36.138Z,0
2016-11-13T04:32:36.138Z,0
2016-11-13T04:33:36.164Z,0
2016-11-13T04:34:36.172Z,0
2016-11-13T04:35:36.184Z,0
2016-11-13T04:36:36.258Z,0
2016-11-13T04:37:36.200Z,0
2016-11-13T04:38:36.211Z,0
2016-11-13T04:39:36.237Z,0
2016-11-13T04:40:36.232Z,0
2016-11-13T04:41:36.243Z,0
2016-11-13T04:42:36.287Z,0
2016-11-13T04:43:36.278Z,0
2016-11-13T04:44:36.290Z,0
2016-11-13T04:45:36.291Z,0
2016-11-13T04:46:36.304Z,0
2016-11-13T04:47:36.352Z,0
2016-11-13T04:48:36.324Z,0
2016-11-13T04:49:36.343Z,0
2016-11-13T04:50:36.405Z,0
2016-11-13T04:51:36.378Z,0
2016-11-13T04:52:36.360Z,0
2016-11-13T04:53:36.387Z,0
2016-11-13T04:54:36.438Z,0
2016-11-13T04:55:36.400Z,0
2016-11-13T04:56:36.416Z,0
2016-11-13T04:57:36.508Z,0
2016-11-13T04:58:36.430Z,0
2016-11-13T04:59:36.467Z,0
2016-11-13T05:00:36.472Z,0
2016-11-13T05:01:36.474Z,0
2016-11-13T05:02:36.483Z,0
2016-11-13T05:03:36.502Z,0
2016-11-13T05:04:36.516Z,0
2016-11-13T05:05:36.521Z,0
2016-11-13T05:06:36.534Z,0
2016-11-13T05:07:36.556Z,0
2016-11-13T05:08:36.547Z,0
2016-11-13T05:09:36.575Z,0
2016-11-13T05:10:36.580Z,0
2016-11-13T05:11:36.586Z,0
2016-11-13T05:12:36.593Z,0
2016-11-13T05:13:36.620Z,0
2016-11-13T05:14:36.659Z,0
2016-11-13T05:15:36.628Z,0
2016-11-13T05:16:36.648Z,0
2016-11-13T05:17:36.734Z,0
2016-11-13T05:18:36.655Z,0
2016-11-13T05:19:36.761Z,0
2016-11-13T05:20:36.678Z,0
2016-11-13T05:21:36.706Z,0
2016-11-13T05:22:36.712Z,0
2016-11-13T05:23:36.720Z,0
2016-11-13T05:24:36.730Z,0
2016-11-13T05:25:36.756Z,0
2016-11-13T05:26:36.858Z,0
2016-11-13T05:27:36.768Z,0
2016-11-13T05:28:36.780Z,0
2016-11-13T05:29:36.789Z,0
2016-11-13T05:30:36.817Z,0
2016-11-13T05:31:36.904Z,0
2016-11-13T05:32:36.857Z,0
2016-11-13T05:33:36.847Z,0
2016-11-13T05:34:36.851Z,0
2016-11-13T05:35:36.866Z,0
2016-11-13T05:36:36.858Z,0
2016-11-13T05:37:36.880Z,0
2016-11-13T05:38:36.892Z,0
2016-11-13T05:39:36.914Z,0
2016-11-13T05:40:36.918Z,0
2016-11-13T05:41:36.915Z,0
2016-11-13T05:42:36.940Z,0
2016-11-13T05:43:36.945Z,0
2016-11-13T05:44:36.966Z,0
2016-11-13T05:45:37.002Z,0
2016-11-13T05:46:36.986Z,0
2016-11-13T05:47:36.993Z,0
2016-11-13T05:48:37.053Z,0
2016-11-13T05:49:37.027Z,0
2016-11-13T05:50:37.032Z,0
2016-11-13T05:51:37.044Z,0
2016-11-13T05:52:37.057Z,0
2016-11-13T05:53:37.063Z,0
2016-11-13T05:54:37.066Z,0
2016-11-13T05:55:37.102Z,0
2016-11-13T05:56:37.094Z,0
2016-11-13T05:57:37.107Z,0
2016-11-13T05:58:37.108Z,0
2016-11-13T05:59:37.117Z,0
2016-11-13T06:00:37.134Z,0
2016-11-13T06:01:37.141Z,0
2016-11-13T06:02:37.172Z,0
2016-11-13T06:03:37.163Z,0
2016-11-13T06:04:37.184Z,0
2016-11-13T06:05:37.199Z,0
2016-11-13T06:06:37.213Z,0
2016-11-13T06:07:37.202Z,0
2016-11-13T06:08:37.227Z,0
2016-11-13T06:09:37.236Z,0
2016-11-13T06:10:37.255Z,0
2016-11-13T06:11:37.265Z,0
2016-11-13T06:12:37.272Z,0
2016-11-13T06:13:37.279Z,0
2016-11-13T06:14:37.297Z,0
2016-11-13T06:15:37.397Z,0
2016-11-13T06:16:37.327Z,0
2016-11-13T06:17:37.327Z,0
2016-11-13T06:18:37.337Z,0
2016-11-13T06:19:37.391Z,0
2016-11-13T06:20:37.356Z,0
2016-11-13T06:21:37.375Z,0
2016-11-13T06:22:37.372Z,0
2016-11-13T06:23:37.394Z,0
2016-11-13T06:24:37.394Z,0
2016-11-13T06:25:37.418Z,0
2016-11-13T06:26:37.431Z,0
2016-11-13T06:27:37.444Z,0
2016-11-13T06:28:37.450Z,0
2016-11-13T06:29:37.470Z,0
2016-11-13T06:30:37.480Z,0
2016-11-13T06:31:37.494Z,0
2016-11-13T06:32:37.497Z,0
2016-11-13T06:33:37.513Z,0
2016-11-13T06:34:37.508Z,0
2016-11-13T06:35:37.521Z,0
2016-11-13T06:36:37.538Z,0
2016-11-13T06:37:37.544Z,0
2016-11-13T06:38:37.553Z,0
2016-11-13T06:39:37.566Z,0
2016-11-13T06:40:37.583Z,0
2016-11-13T06:41:37.590Z,0
2016-11-13T06:42:37.604Z,0
2016-11-13T06:43:37.623Z,0
2016-11-13T06:44:37.619Z,5
2016-11-13T06:45:37.669Z,5
2016-11-13T06:46:37.646Z,5
2016-11-13T06:47:37.666Z,5
2016-11-13T06:48:37.670Z,5
2016-11-13T06:49:37.689Z,5
2016-11-13T06:50:37.701Z,5
2016-11-13T06:51:37.709Z,5
2016-11-13T06:52:37.710Z,5
2016-11-13T06:53:37.722Z,5
2016-11-13T06:54:37.728Z,10
2016-11-13T06:55:37.834Z,10
2016-11-13T06:56:37.757Z,10
2016-11-13T06:57:37.769Z,10
2016-11-13T06:58:37.784Z,10
2016-11-13T06:59:37.789Z,10
2016-11-13T07:00:37.802Z,10
2016-11-13T07:01:37.812Z,15
2016-11-13T07:02:37.817Z,15
2016-11-13T07:03:37.846Z,15
2016-11-13T07:04:37.870Z,15
2016-11-13T07:05:37.906Z,15
2016-11-13T07:06:37.868Z,15
2016-11-13T07:07:37.882Z,20
2016-11-13T07:08:37.906Z,20
2016-11-13T07:09:37.913Z,20
2016-11-13T07:10:37.917Z,20
2016-11-13T07:11:37.923Z,25
2016-11-13T07:12:37.938Z,25
2016-11-13T07:13:37.953Z,25
2016-11-13T07:14:37.957Z,25
2016-11-13T07:15:37.975Z,25
2016-11-13T07:16:37.983Z,30
2016-11-13T07:17:37.992Z,30
2016-11-13T07:18:38.002Z,30
2016-11-13T07:19:38.008Z,30
2016-11-13T07:20:38.034Z,30
2016-11-13T07:21:38.067Z,30
2016-11-13T07:22:38.040Z,30
2016-11-13T07:23:38.069Z,30
2016-11-13T07:24:38.064Z,30
2016-11-13T07:25:38.075Z,30
2016-11-13T07:26:38.088Z,30
2016-11-13T07:27:38.101Z,35
2016-11-13T07:28:38.112Z,35
2016-11-13T07:29:38.220Z,35
2016-11-13T07:30:38.217Z,35
2016-11-13T07:31:38.155Z,35
2016-11-13T07:32:38.164Z,35
2016-11-13T07:33:38.183Z,35
2016-11-13T07:34:38.181Z,40
2016-11-13T07:35:38.197Z,40
2016-11-13T07:36:38.199Z,40
2016-11-13T07:37:38.228Z,45
2016-11-13T07:38:38.236Z,45
2016-11-13T07:39:38.260Z,40
2016-11-13T07:40:38.257Z,45
2016-11-13T07:41:38.259Z,40
2016-11-13T07:42:38.285Z,40
2016-11-13T07:43:38.301Z,40
2016-11-13T07:44:38.308Z,40
2016-11-13T07:45:38.319Z,40
2016-11-13T07:46:38.371Z,40
2016-11-13T07:47:38.340Z,40
2016-11-13T07:48:38.348Z,40
2016-11-13T07:49:38.364Z,40
2016-11-13T07:50:38.418Z,40
2016-11-13T07:51:38.379Z,40
2016-11-13T07:52:38.394Z,40
2016-11-13T07:53:38.402Z,40
2016-11-13T07:54:38.461Z,40
2016-11-13T07:55:38.429Z,40
2016-11-13T07:56:38.441Z,45
2016-11-13T07:57:38.460Z,45
2016-11-13T07:58:38.495Z,45
2016-11-13T07:59:38.474Z,45
2016-11-13T08:00:38.487Z,45
2016-11-13T08:01:38.488Z,45
2016-11-13T08:02:38.547Z,45
2016-11-13T08:03:38.525Z,50
2016-11-13T08:04:38.535Z,50
2016-11-13T08:05:38.563Z,50
2016-11-13T08:06:38.561Z,50
2016-11-13T08:07:38.574Z,50
2016-11-13T08:08:38.577Z,50
2016-11-13T08:09:38.594Z,50
2016-11-13T08:10:38.598Z,50
2016-11-13T08:11:38.629Z,50
2016-11-13T08:12:38.631Z,50
2016-11-13T08:13:38.632Z,50
2016-11-13T08:14:38.661Z,50
2016-11-13T08:15:38.669Z,50
2016-11-13T08:16:38.676Z,50
2016-11-13T08:17:38.682Z,55
2016-11-13T08:18:38.697Z,55
2016-11-13T08:19:38.713Z,50
2016-11-13T08:20:38.720Z,50
2016-11-13T08:21:38.727Z,50
2016-11-13T08:22:38.748Z,50
2016-11-13T08:23:38.748Z,50
2016-11-13T08:24:38.763Z,50
2016-11-13T08:25:38.771Z,50
2016-11-13T08:26:38.792Z,50
2016-11-13T08:27:39.065Z,55
2016-11-13T08:28:38.817Z,55
2016-11-13T08:29:38.840Z,55
2016-11-13T08:30:38.836Z,55
2016-11-13T08:31:38.849Z,55
2016-11-13T08:32:38.873Z,55
2016-11-13T08:33:38.869Z,55
2016-11-13T08:34:38.940Z,55
2016-11-13T08:35:38.900Z,55
2016-11-13T08:36:38.917Z,55
2016-11-13T08:37:38.930Z,55
2016-11-13T08:38:38.928Z,60
2016-11-13T08:39:38.940Z,60
2016-11-13T08:40:38.951Z,60
2016-11-13T08:41:38.977Z,60
2016-11-13T08:42:38.985Z,60
2016-11-13T08:43:39.005Z,60
2016-11-13T08:44:39.005Z,60
2016-11-13T08:45:39.011Z,60
2016-11-13T08:46:39.029Z,60
2016-11-13T08:47:39.118Z,60
2016-11-13T08:48:39.048Z,60
2016-11-13T08:49:39.069Z,60
2016-11-13T08:50:39.085Z,60
2016-11-13T08:51:39.093Z,60
2016-11-13T08:52:39.112Z,60
2016-11-13T08:53:39.105Z,60
2016-11-13T08:54:39.499Z,60
2016-11-13T08:55:39.133Z,60
2016-11-13T08:56:39.146Z,60
2016-11-13T08:57:39.163Z,60
2016-11-13T08:58:39.176Z,60
2016-11-13T08:59:39.189Z,60
2016-11-13T09:00:39.202Z,60
2016-11-13T09:01:39.209Z,60
2016-11-13T09:02:39.222Z,60
2016-11-13T09:03:39.229Z,60
2016-11-13T09:04:39.331Z,60
2016-11-13T09:05:39.247Z,55
2016-11-13T09:06:39.268Z,55
2016-11-13T09:07:39.287Z,55
2016-11-13T09:08:39.288Z,55
2016-11-13T09:09:39.308Z,60
2016-11-13T09:10:39.308Z,60
2016-11-13T09:11:39.376Z,60
2016-11-13T09:12:39.337Z,60
2016-11-13T09:13:39.359Z,60
2016-11-13T09:14:39.399Z,60
2016-11-13T09:15:39.377Z,60
2016-11-13T09:16:39.389Z,60
2016-11-13T09:17:39.409Z,60
2016-11-13T09:18:39.404Z,60
2016-11-13T09:19:39.431Z,60
2016-11-13T09:20:39.443Z,65
2016-11-13T09:21:39.464Z,65
2016-11-13T09:22:39.475Z,65
2016-11-13T09:23:39.504Z,65
2016-11-13T09:24:39.487Z,65
2016-11-13T09:25:39.503Z,65
2016-11-13T09:26:39.530Z,70
2016-11-13T09:27:39.534Z,70
2016-11-13T09:28:39.536Z,70
2016-11-13T09:29:39.559Z,70
2016-11-13T09:30:39.552Z,70
2016-11-13T09:31:39.575Z,70
2016-11-13T09:32:39.602Z,70
2016-11-13T09:33:39.592Z,70
2016-11-13T09:34:39.611Z,75
2016-11-13T09:35:39.636Z,75
2016-11-13T09:36:39.637Z,75
2016-11-13T09:37:39.654Z,75
2016-11-13T09:38:39.666Z,75
2016-11-13T09:39:39.666Z,75
2016-11-13T09:40:39.698Z,75
2016-11-13T09:41:39.702Z,75
2016-11-13T09:42:39.715Z,75
2016-11-13T09:43:39.724Z,75
2016-11-13T09:44:39.738Z,75
2016-11-13T09:45:39.754Z,80
2016-11-13T09:46:39.757Z,80
2016-11-13T09:47:39.777Z,80
2016-11-13T09:48:39.783Z,80
2016-11-13T09:49:39.801Z,80
2016-11-13T09:50:39.813Z,80
2016-11-13T09:51:39.919Z,85
2016-11-13T09:52:39.848Z,85
2016-11-13T09:53:39.854Z,85
2016-11-13T09:54:39.857Z,85
2016-11-13T09:55:39.871Z,85
2016-11-13T09:56:40.004Z,85
2016-11-13T09:57:39.899Z,85
2016-11-13T09:58:39.923Z,85
2016-11-13T09:59:39.923Z,85
2016-11-13T10:00:39.947Z,85
2016-11-13T10:01:39.967Z,85
2016-11-13T10:02:39.959Z,85
2016-11-13T10:03:39.984Z,85
2016-11-13T10:04:39.987Z,85
2016-11-13T10:05:40.024Z,85
2016-11-13T10:06:40.015Z,85
2016-11-13T10:07:40.039Z,85
2016-11-13T10:08:40.047Z,85
2016-11-13T10:09:40.049Z,85
2016-11-13T10:10:40.073Z,85
2016-11-13T10:11:40.069Z,85
2016-11-13T10:12:40.084Z,85
2016-11-13T10:13:40.099Z,85
2016-11-13T10:14:40.125Z,85
2016-11-13T10:15:40.140Z,85
2016-11-13T10:16:40.152Z,85
2016-11-13T10:17:40.149Z,85
2016-11-13T10:18:40.158Z,85
2016-11-13T10:19:40.170Z,90
2016-11-13T10:20:40.186Z,90
2016-11-13T10:21:40.199Z,90
2016-11-13T10:22:40.300Z,90
2016-11-13T10:23:40.236Z,90
2016-11-13T10:24:40.253Z,90
2016-11-13T10:25:40.260Z,90
2016-11-13T10:26:40.273Z,90
2016-11-13T10:27:40.277Z,90
2016-11-13T10:28:40.301Z,90
2016-11-13T10:29:40.341Z,90
2016-11-13T10:30:40.331Z,95
2016-11-13T10:31:40.350Z,95
2016-11-13T10:32:40.349Z,95
2016-11-13T10:33:40.347Z,95
2016-11-13T10:34:40.391Z,95
2016-11-13T10:35:40.394Z,100
2016-11-13T10:36:40.399Z,100
2016-11-13T10:37:40.411Z,100
2016-11-13T10:38:40.470Z,100
2016-11-13T10:39:40.436Z,100
2016-11-13T10:40:40.443Z,100
2016-11-13T10:41:40.460Z,105
2016-11-13T10:42:40.472Z,105
2016-11-13T10:43:40.490Z,105
2016-11-13T10:44:40.509Z,105
2016-11-13T10:45:40.520Z,105
2016-11-13T10:46:40.533Z,105
2016-11-13T10:47:40.538Z,110
2016-11-13T10:48:40.541Z,110
2016-11-13T10:49:40.572Z,110
2016-11-13T10:50:40.583Z,110
2016-11-13T10:51:40.587Z,110
2016-11-13T10:52:40.613Z,110
2016-11-13T10:53:40.622Z,110
2016-11-13T10:54:40.623Z,110
2016-11-13T10:55:40.646Z,115
2016-11-13T10:56:40.661Z,115
2016-11-13T10:57:40.673Z,115
2016-11-13T10:58:40.681Z,115
2016-11-13T10:59:40.733Z,115
2016-11-13T11:00:40.728Z,120
2016-11-13T11:01:40.725Z,120
2016-11-13T11:02:40.824Z,120
2016-11-13T11:03:40.743Z,120
2016-11-13T11:04:40.752Z,120
2016-11-13T11:05:40.767Z,125
2016-11-13T11:06:40.795Z,120
2016-11-13T11:07:40.799Z,120
2016-11-13T11:08:40.818Z,120
2016-11-13T11:09:40.836Z,125
2016-11-13T11:10:40.848Z,125
2016-11-13T11:11:40.862Z,125
2016-11-13T11:12:40.875Z,125
2016-11-13T11:13:40.890Z,125
2016-11-13T11:14:40.892Z,125
2016-11-13T11:15:40.909Z,125
2016-11-13T11:16:40.928Z,125
2016-11-13T11:17:40.937Z,125
2016-11-13T11:18:40.959Z,130
2016-11-13T11:19:40.961Z,130
2016-11-13T11:20:40.976Z,130
2016-11-13T11:21:40.988Z,130
2016-11-13T11:22:41.013Z,130
2016-11-13T11:23:41.020Z,130
2016-11-13T11:24:41.028Z,130
2016-11-13T11:25:41.032Z,130
2016-11-13T11:26:41.061Z,130
2016-11-13T11:27:41.071Z,130
2016-11-13T11:28:41.078Z,135
2016-11-13T11:29:41.102Z,135
2016-11-13T11:30:41.114Z,140
2016-11-13T11:31:41.152Z,135
2016-11-13T11:32:41.137Z,135
2016-11-13T11:33:41.486Z,135
2016-11-13T11:34:41.159Z,135
2016-11-13T11:35:41.179Z,135
2016-11-13T11:36:41.195Z,135
2016-11-13T11:37:41.208Z,140
2016-11-13T11:38:41.220Z,140
2016-11-13T11:39:41.266Z,140
2016-11-13T11:40:41.249Z,140
2016-11-13T11:41:41.259Z,140
2016-11-13T11:42:41.308Z,145
2016-11-13T11:43:41.278Z,145
2016-11-13T11:44:41.275Z,145
2016-11-13T11:45:41.303Z,140
2016-11-13T11:46:41.372Z,140
2016-11-13T11:47:41.421Z,145
2016-11-13T11:48:41.351Z,145
2016-11-13T11:49:41.366Z,145
2016-11-13T11:50:41.384Z,150
2016-11-13T11:51:41.386Z,170
2016-11-13T11:52:41.409Z,180
2016-11-13T11:53:41.407Z,175
2016-11-13T11:54:41.433Z,175
2016-11-13T11:55:41.438Z,180
2016-11-13T11:56:41.457Z,175
2016-11-13T11:57:41.546Z,170
2016-11-13T11:58:41.477Z,180
2016-11-13T11:59:41.531Z,180
2016-11-13T12:00:41.512Z,180
2016-11-13T12:01:41.542Z,185
2016-11-13T12:02:41.540Z,180
2016-11-13T12:03:41.542Z,180
2016-11-13T12:04:41.565Z,185
2016-11-13T12:05:41.567Z,180
2016-11-13T12:06:41.588Z,175
2016-11-13T12:07:41.598Z,170
2016-11-13T12:08:41.618Z,175
2016-11-13T12:09:41.627Z,175
2016-11-13T12:10:41.653Z,175
2016-11-13T12:11:41.661Z,165
2016-11-13T12:12:41.670Z,155
2016-11-13T12:13:41.694Z,140
2016-11-13T12:14:41.687Z,140
2016-11-13T12:15:41.716Z,135
2016-11-13T12:16:41.727Z,145
2016-11-13T12:17:41.743Z,135
2016-11-13T12:18:41.759Z,135
2016-11-13T12:19:41.767Z,135
2016-11-13T12:20:41.768Z,135
2016-11-13T12:21:41.799Z,135
2016-11-13T12:22:41.808Z,135
2016-11-13T12:23:41.839Z,130
2016-11-13T12:24:41.834Z,130
2016-11-13T12:25:41.852Z,130
2016-11-13T12:26:41.862Z,125
2016-11-13T12:27:41.883Z,125
2016-11-13T12:28:41.888Z,120
2016-11-13T12:29:41.915Z,120
2016-11-13T12:30:41.916Z,115
2016-11-13T12:31:41.931Z,115
2016-11-13T12:32:41.940Z,120
2016-11-13T12:33:42.059Z,110
2016-11-13T12:34:41.989Z,110
2016-11-13T12:35:42.004Z,110
2016-11-13T12:36:42.009Z,105
2016-11-13T12:37:42.016Z,105
2016-11-13T12:38:42.029Z,105
2016-11-13T12:39:42.031Z,105
2016-11-13T12:40:42.052Z,100
2016-11-13T12:41:42.076Z,100
2016-11-13T12:42:42.085Z,100
2016-11-13T12:43:42.102Z,100
2016-11-13T12:44:42.115Z,100
2016-11-13T12:45:42.131Z,95
2016-11-13T12:46:42.156Z,95
2016-11-13T12:47:42.177Z,95
2016-11-13T12:48:42.163Z,95
2016-11-13T12:49:42.178Z,90
2016-11-13T12:50:42.199Z,90
2016-11-13T12:51:42.198Z,90
2016-11-13T12:52:42.227Z,90
2016-11-13T12:53:42.233Z,90
2016-11-13T12:54:42.249Z,90
2016-11-13T12:55:42.267Z,90
2016-11-13T12:56:42.263Z,90
2016-11-13T12:57:42.292Z,90
2016-11-13T12:58:42.313Z,90
2016-11-13T12:59:42.312Z,90
2016-11-13T13:00:42.334Z,90
2016-11-13T13:01:42.337Z,90
2016-11-13T13:02:42.365Z,90
2016-11-13T13:03:42.359Z,90
2016-11-13T13:04:42.384Z,90
2016-11-13T13:05:42.397Z,90
2016-11-13T13:06:42.417Z,90
2016-11-13T13:07:42.418Z,90
2016-11-13T13:08:42.438Z,90
2016-11-13T13:09:42.460Z,90
2016-11-13T13:10:42.463Z,90
2016-11-13T13:11:42.481Z,90
2016-11-13T13:12:42.489Z,90
2016-11-13T13:13:42.573Z,90
2016-11-13T13:14:42.526Z,90
2016-11-13T13:15:42.522Z,90
2016-11-13T13:16:42.543Z,90
2016-11-13T13:17:42.551Z,90
2016-11-13T13:18:42.567Z,90
2016-11-13T13:19:42.592Z,90
2016-11-13T13:20:42.615Z,90
2016-11-13T13:21:42.644Z,90
2016-11-13T13:22:42.632Z,90
2016-11-13T13:23:42.643Z,90
2016-11-13T13:24:42.648Z,90
2016-11-13T13:25:42.657Z,90
2016-11-13T13:26:42.738Z,95
2016-11-13T13:27:42.690Z,95
2016-11-13T13:28:42.715Z,95
2016-11-13T13:29:42.716Z,95
2016-11-13T13:30:42.729Z,95
2016-11-13T13:31:42.746Z,95
2016-11-13T13:32:42.762Z,95
2016-11-13T13:33:42.784Z,90
2016-11-13T13:34:42.815Z,90
2016-11-13T13:35:42.791Z,90
2016-11-13T13:36:42.821Z,90
2016-11-13T13:37:42.827Z,90
2016-11-13T13:38:42.845Z,90
2016-11-13T13:39:42.848Z,85
2016-11-13T13:40:42.873Z,85
2016-11-13T13:41:42.977Z,85
2016-11-13T13:42:42.929Z,80
2016-11-13T13:43:42.903Z,80
2016-11-13T13:44:42.923Z,80
2016-11-13T13:45:42.934Z,80
2016-11-13T13:46:42.953Z,80
2016-11-13T13:47:42.955Z,80
2016-11-13T13:48:42.975Z,80
2016-11-13T13:49:42.978Z,80
2016-11-13T13:50:43.012Z,80
2016-11-13T13:51:43.002Z,80
2016-11-13T13:52:43.033Z,80
2016-11-13T13:53:43.029Z,80
2016-11-13T13:54:43.061Z,80
2016-11-13T13:55:43.066Z,75
2016-11-13T13:56:43.073Z,75
2016-11-13T13:57:43.089Z,75
2016-11-13T13:58:43.102Z,75
2016-11-13T13:59:43.118Z,75
2016-11-13T14:00:43.130Z,75
2016-11-13T14:01:43.136Z,75
2016-11-13T14:02:43.159Z,75
2016-11-13T14:03:43.177Z,75
2016-11-13T14:04:43.177Z,75
2016-11-13T14:05:43.197Z,75
2016-11-13T14:06:43.209Z,75
2016-11-13T14:07:43.221Z,75
2016-11-13T14:08:43.243Z,70
2016-11-13T14:09:43.252Z,70
2016-11-13T14:10:43.266Z,70
2016-11-13T14:11:43.271Z,70
2016-11-13T14:12:43.292Z,70
2016-11-13T14:13:43.307Z,70
2016-11-13T14:14:43.329Z,70
2016-11-13T14:15:43.331Z,70
2016-11-13T14:16:43.342Z,70
2016-11-13T14:17:43.376Z,70
2016-11-13T14:18:43.366Z,65
2016-11-13T14:19:43.403Z,65
2016-11-13T14:20:58.256Z,65
2016-11-13T14:21:43.405Z,65
2016-11-13T14:22:43.425Z,65
2016-11-13T14:23:43.449Z,65
2016-11-13T14:24:43.487Z,65
2016-11-13T14:25:43.465Z,65
2016-11-13T14:26:43.470Z,60